Aviation Digital Data Service (ADDS)

Output produced by METARs form (1053 UTC 30 March 2017)
found at http://aviationweather.gov/adds/metars/
 
KMFD 300532Z 3006/3106 09010KT P6SM BKN100 OVC200 
     FM301000 10014KT P6SM SCT025 OVC050 
     FM301400 10014KT 5SM -SHRA BR SCT006 OVC012 
     FM301800 12012KT 5SM BR OVC012 
     FM310000 15010KT 4SM -RA BR OVC012 
     PROB30 3100/3106 1SM TSRA BR OVC006CB